createdAt,value
2023-03-11T00:00:46.704Z,993.24
2023-03-11T00:01:43.133Z,993.22
2023-03-11T00:02:43.008Z,993.21
2023-03-11T00:03:43.054Z,993.27
2023-03-11T00:04:43.012Z,993.26
2023-03-11T00:05:43.100Z,993.25
2023-03-11T00:06:43.024Z,993.31
2023-03-11T00:07:43.020Z,993.35
2023-03-11T00:08:43.055Z,993.35
2023-03-11T00:09:43.028Z,993.36
2023-03-11T00:10:43.021Z,993.46
2023-03-11T00:11:43.024Z,993.47
2023-03-11T00:12:43.045Z,993.44
2023-03-11T00:13:43.027Z,993.45
2023-03-11T00:14:43.020Z,993.48
2023-03-11T00:15:43.026Z,993.54
2023-03-11T00:16:43.038Z,993.59
2023-03-11T00:17:43.025Z,993.62
2023-03-11T00:18:43.011Z,993.57
2023-03-11T00:19:43.021Z,993.67
2023-03-11T00:20:43.030Z,993.74
2023-03-11T00:21:43.036Z,993.74
2023-03-11T00:22:43.052Z,993.78
2023-03-11T00:23:43.022Z,993.72
2023-03-11T00:24:43.028Z,993.7
2023-03-11T00:25:43.087Z,993.71
2023-03-11T00:26:43.022Z,993.73
2023-03-11T00:27:43.047Z,993.76
2023-03-11T00:28:43.208Z,993.76
2023-03-11T00:29:43.021Z,993.77
2023-03-11T00:30:43.034Z,993.76
2023-03-11T00:31:43.019Z,993.83
2023-03-11T00:32:43.066Z,993.87
2023-03-11T00:33:43.016Z,993.84
2023-03-11T00:34:43.017Z,993.88
2023-03-11T00:35:43.076Z,993.95
2023-03-11T00:36:43.031Z,993.89
2023-03-11T00:37:43.148Z,993.93
2023-03-11T00:38:43.036Z,993.91
2023-03-11T00:39:43.030Z,993.99
2023-03-11T00:40:43.023Z,994.02
2023-03-11T00:41:43.123Z,994
2023-03-11T00:42:43.047Z,993.99
2023-03-11T00:43:43.026Z,994.04
2023-03-11T00:44:43.022Z,994.04
2023-03-11T00:45:43.031Z,994.08
2023-03-11T00:46:43.016Z,994.05
2023-03-11T00:47:43.035Z,994.06
2023-03-11T00:48:43.012Z,994.11
2023-03-11T00:49:43.033Z,994.05
2023-03-11T00:50:43.030Z,994.09
2023-03-11T00:51:43.019Z,994.12
2023-03-11T00:52:43.019Z,994.11
2023-03-11T00:53:43.018Z,994.15
2023-03-11T00:54:43.011Z,994.18
2023-03-11T00:55:43.176Z,994.21
2023-03-11T00:56:43.350Z,994.22
2023-03-11T00:57:43.341Z,994.25
2023-03-11T00:58:42.604Z,994.28
2023-03-11T00:59:42.859Z,994.31
2023-03-11T01:00:43.148Z,994.34
2023-03-11T01:01:42.453Z,994.36
2023-03-11T01:02:42.733Z,994.35
2023-03-11T01:03:42.985Z,994.37
2023-03-11T01:04:43.323Z,994.36
2023-03-11T01:05:42.724Z,994.36
2023-03-11T01:06:47.865Z,994.35
2023-03-11T01:07:43.401Z,994.4
2023-03-11T01:08:43.020Z,994.38
2023-03-11T01:09:43.027Z,994.39
2023-03-11T01:10:43.010Z,994.37
2023-03-11T01:11:43.018Z,994.37
2023-03-11T01:12:43.043Z,994.42
2023-03-11T01:13:43.104Z,994.39
2023-03-11T01:14:43.022Z,994.41
2023-03-11T01:15:43.457Z,994.43
2023-03-11T01:16:43.198Z,994.43
2023-03-11T01:17:43.229Z,994.45
2023-03-11T01:18:43.496Z,994.46
2023-03-11T01:19:43.389Z,994.53
2023-03-11T01:20:43.305Z,994.53
2023-03-11T01:21:43.380Z,994.55
2023-03-11T01:22:43.276Z,994.51
2023-03-11T01:23:43.358Z,994.53
2023-03-11T01:24:43.213Z,994.51
2023-03-11T01:25:43.431Z,994.51
2023-03-11T01:26:43.371Z,994.53
2023-03-11T01:27:43.270Z,994.54
2023-03-11T01:28:43.475Z,994.56
2023-03-11T01:29:43.283Z,994.59
2023-03-11T01:30:43.577Z,994.56
2023-03-11T01:31:43.050Z,994.6
2023-03-11T01:32:43.311Z,994.59
2023-03-11T01:33:43.080Z,994.58
2023-03-11T01:34:43.282Z,994.6
2023-03-11T01:35:43.178Z,994.63
2023-03-11T01:36:43.013Z,994.64
2023-03-11T01:37:43.311Z,994.63
2023-03-11T01:38:43.009Z,994.64
2023-03-11T01:39:43.017Z,994.67
2023-03-11T01:40:43.024Z,994.66
2023-03-11T01:41:43.015Z,994.7
2023-03-11T01:42:43.040Z,994.73
2023-03-11T01:43:43.033Z,994.76
2023-03-11T01:44:43.026Z,994.73
2023-03-11T01:45:43.014Z,994.73
2023-03-11T01:46:43.097Z,994.74
2023-03-11T01:47:43.014Z,994.74
2023-03-11T01:48:43.118Z,994.74
2023-03-11T01:49:43.021Z,994.76
2023-03-11T01:50:43.019Z,994.73
2023-03-11T01:51:43.085Z,994.72
2023-03-11T01:52:43.030Z,994.72
2023-03-11T01:53:43.017Z,994.7
2023-03-11T01:54:43.011Z,994.7
2023-03-11T01:55:43.068Z,994.7
2023-03-11T01:56:43.033Z,994.71
2023-03-11T01:57:43.047Z,994.69
2023-03-11T01:58:43.019Z,994.74
2023-03-11T01:59:43.158Z,994.75
2023-03-11T02:00:43.016Z,994.74
2023-03-11T02:01:43.196Z,994.73
2023-03-11T02:02:43.103Z,994.77
2023-03-11T02:03:43.276Z,994.75
2023-03-11T02:04:43.053Z,994.77
2023-03-11T02:05:43.009Z,994.8
2023-03-11T02:06:43.105Z,994.82
2023-03-11T02:07:43.010Z,994.8
2023-03-11T02:08:43.021Z,994.79
2023-03-11T02:09:43.010Z,994.78
2023-03-11T02:10:43.006Z,994.71
2023-03-11T02:11:43.008Z,994.73
2023-03-11T02:12:43.009Z,994.77
2023-03-11T02:13:43.053Z,994.72
2023-03-11T02:14:43.027Z,994.75
2023-03-11T02:15:43.058Z,994.77
2023-03-11T02:16:43.105Z,994.7
2023-03-11T02:17:43.011Z,994.72
2023-03-11T02:18:43.043Z,994.67
2023-03-11T02:19:43.076Z,994.7
2023-03-11T02:20:43.015Z,994.68
2023-03-11T02:21:43.014Z,994.71
2023-03-11T02:22:43.022Z,994.68
2023-03-11T02:23:43.022Z,994.73
2023-03-11T02:24:43.015Z,994.75
2023-03-11T02:25:43.015Z,994.77
2023-03-11T02:26:43.027Z,994.77
2023-03-11T02:27:43.076Z,994.79
2023-03-11T02:28:43.071Z,994.85
2023-03-11T02:29:43.013Z,994.86
2023-03-11T02:30:43.082Z,994.86
2023-03-11T02:31:46.123Z,994.88
2023-03-11T02:32:43.089Z,994.88
2023-03-11T02:33:43.021Z,994.88
2023-03-11T02:34:43.021Z,994.89
2023-03-11T02:35:43.037Z,994.89
2023-03-11T02:36:43.038Z,994.88
2023-03-11T02:37:43.033Z,994.89
2023-03-11T02:38:43.034Z,994.94
2023-03-11T02:39:43.030Z,994.92
2023-03-11T02:40:43.022Z,994.97
2023-03-11T02:41:43.025Z,995.01
2023-03-11T02:42:43.020Z,995
2023-03-11T02:43:43.024Z,994.96
2023-03-11T02:44:43.029Z,995.01
2023-03-11T02:45:43.025Z,995.01
2023-03-11T02:46:43.059Z,994.95
2023-03-11T02:47:43.020Z,995.04
2023-03-11T02:48:43.020Z,995.06
2023-03-11T02:49:43.023Z,995.05
2023-03-11T02:50:43.026Z,995.11
2023-03-11T02:51:43.036Z,995.1
2023-03-11T02:52:43.008Z,995.13
2023-03-11T02:53:43.028Z,995.17
2023-03-11T02:54:43.023Z,995.15
2023-03-11T02:55:43.030Z,995.16
2023-03-11T02:56:43.040Z,995.16
2023-03-11T02:57:43.097Z,995.16
2023-03-11T02:58:43.423Z,995.16
2023-03-11T02:59:43.426Z,995.14
2023-03-11T03:00:43.467Z,995.16
2023-03-11T03:01:43.609Z,995.12
2023-03-11T03:02:43.432Z,995.15
2023-03-11T03:03:43.538Z,995.17
2023-03-11T03:04:43.432Z,995.16
2023-03-11T03:05:43.431Z,995.23
2023-03-11T03:06:43.420Z,995.24
2023-03-11T03:07:43.430Z,995.23
2023-03-11T03:08:43.427Z,995.21
2023-03-11T03:09:43.440Z,995.3
2023-03-11T03:10:43.429Z,995.29
2023-03-11T03:11:43.435Z,995.3
2023-03-11T03:12:43.455Z,995.33
2023-03-11T03:13:43.466Z,995.3
2023-03-11T03:14:43.430Z,995.34
2023-03-11T03:15:43.434Z,995.33
2023-03-11T03:16:43.620Z,995.35
2023-03-11T03:17:43.246Z,995.33
2023-03-11T03:18:43.021Z,995.44
2023-03-11T03:19:43.252Z,995.41
2023-03-11T03:20:43.023Z,995.41
2023-03-11T03:21:43.276Z,995.43
2023-03-11T03:22:43.133Z,995.45
2023-03-11T03:23:43.366Z,995.48
2023-03-11T03:24:43.724Z,995.45
2023-03-11T03:25:43.012Z,995.48
2023-03-11T03:26:43.177Z,995.52
2023-03-11T03:27:43.395Z,995.48
2023-03-11T03:28:43.016Z,995.5
2023-03-11T03:29:43.013Z,995.51
2023-03-11T03:30:43.010Z,995.49
2023-03-11T03:31:43.037Z,995.52
2023-03-11T03:32:43.081Z,995.52
2023-03-11T03:33:43.012Z,995.6
2023-03-11T03:34:43.015Z,995.61
2023-03-11T03:35:43.049Z,995.6
2023-03-11T03:36:43.018Z,995.62
2023-03-11T03:37:43.030Z,995.66
2023-03-11T03:38:43.028Z,995.7
2023-03-11T03:39:43.024Z,995.62
2023-03-11T03:40:43.104Z,995.68
2023-03-11T03:41:43.116Z,995.68
2023-03-11T03:42:43.033Z,995.73
2023-03-11T03:43:43.009Z,995.71
2023-03-11T03:44:43.026Z,995.73
2023-03-11T03:45:43.052Z,995.75
2023-03-11T03:46:43.019Z,995.76
2023-03-11T03:47:43.042Z,995.8
2023-03-11T03:48:43.026Z,995.82
2023-03-11T03:49:43.014Z,995.81
2023-03-11T03:50:43.028Z,995.89
2023-03-11T03:51:43.027Z,995.86
2023-03-11T03:52:43.112Z,995.87
2023-03-11T03:53:43.009Z,995.88
2023-03-11T03:54:43.021Z,995.87
2023-03-11T03:55:43.012Z,995.88
2023-03-11T03:56:43.022Z,995.86
2023-03-11T03:57:43.073Z,995.85
2023-03-11T03:58:43.008Z,995.86
2023-03-11T03:59:43.006Z,995.87
2023-03-11T04:00:43.019Z,995.86
2023-03-11T04:01:43.012Z,995.84
2023-03-11T04:02:43.036Z,995.9
2023-03-11T04:03:43.065Z,995.91
2023-03-11T04:04:43.022Z,995.89
2023-03-11T04:05:43.028Z,995.95
2023-03-11T04:06:43.058Z,995.93
2023-03-11T04:07:43.052Z,995.94
2023-03-11T04:08:43.011Z,996.02
2023-03-11T04:09:43.122Z,996
2023-03-11T04:10:43.013Z,996.01
2023-03-11T04:11:43.020Z,996.05
2023-03-11T04:12:43.019Z,996.05
2023-03-11T04:13:43.001Z,996.06
2023-03-11T04:14:43.014Z,996.07
2023-03-11T04:15:43.020Z,996.06
2023-03-11T04:16:43.064Z,996.08
2023-03-11T04:17:43.020Z,996.11
2023-03-11T04:18:43.022Z,996.14
2023-03-11T04:19:43.010Z,996.15
2023-03-11T04:20:43.023Z,996.18
2023-03-11T04:21:43.078Z,996.18
2023-03-11T04:22:43.062Z,996.19
2023-03-11T04:23:43.100Z,996.18
2023-03-11T04:24:43.162Z,996.16
2023-03-11T04:25:43.318Z,996.19
2023-03-11T04:26:43.138Z,996.22
2023-03-11T04:27:43.010Z,996.21
2023-03-11T04:28:43.010Z,996.24
2023-03-11T04:29:43.319Z,996.29
2023-03-11T04:30:43.469Z,996.25
2023-03-11T04:31:43.962Z,996.3
2023-03-11T04:32:42.646Z,996.27
2023-03-11T04:33:42.844Z,996.33
2023-03-11T04:34:43.196Z,996.3
2023-03-11T04:35:42.513Z,996.32
2023-03-11T04:36:42.760Z,996.31
2023-03-11T04:37:43.081Z,996.34
2023-03-11T04:38:43.305Z,996.32
2023-03-11T04:39:42.752Z,996.32
2023-03-11T04:40:43.115Z,996.37
2023-03-11T04:41:43.316Z,996.37
2023-03-11T04:42:43.720Z,996.38
2023-03-11T04:43:43.283Z,996.37
2023-03-11T04:44:43.396Z,996.42
2023-03-11T04:45:43.321Z,996.46
2023-03-11T04:46:43.410Z,996.46
2023-03-11T04:47:43.369Z,996.45
2023-03-11T04:48:43.103Z,996.44
2023-03-11T04:49:43.174Z,996.45
2023-03-11T04:50:43.012Z,996.5
2023-03-11T04:51:43.303Z,996.48
2023-03-11T04:52:43.256Z,996.52
2023-03-11T04:53:43.017Z,996.52
2023-03-11T04:54:43.458Z,996.53
2023-03-11T04:55:43.084Z,996.54
2023-03-11T04:56:43.283Z,996.56
2023-03-11T04:57:43.272Z,996.6
2023-03-11T04:58:43.377Z,996.58
2023-03-11T04:59:43.599Z,996.55
2023-03-11T05:00:43.425Z,996.65
2023-03-11T05:01:43.349Z,996.65
2023-03-11T05:02:43.383Z,996.64
2023-03-11T05:03:43.443Z,996.66
2023-03-11T05:04:43.137Z,996.68
2023-03-11T05:05:44.137Z,996.66
2023-03-11T05:06:43.025Z,996.71
2023-03-11T05:07:43.168Z,996.68
2023-03-11T05:08:43.028Z,996.68
2023-03-11T05:09:43.550Z,996.68
2023-03-11T05:10:43.428Z,996.71
2023-03-11T05:11:43.012Z,996.72
2023-03-11T05:12:43.082Z,996.75
2023-03-11T05:13:43.337Z,996.72
2023-03-11T05:14:43.022Z,996.72
2023-03-11T05:15:43.149Z,996.74
2023-03-11T05:16:43.211Z,996.74
2023-03-11T05:17:43.194Z,996.76
2023-03-11T05:18:43.249Z,996.76
2023-03-11T05:19:43.523Z,996.76
2023-03-11T05:20:43.073Z,996.78
2023-03-11T05:21:43.018Z,996.79
2023-03-11T05:22:43.032Z,996.76
2023-03-11T05:23:43.007Z,996.84
2023-03-11T05:24:43.007Z,996.85
2023-03-11T05:25:43.004Z,996.88
2023-03-11T05:26:43.007Z,996.87
2023-03-11T05:27:43.033Z,996.85
2023-03-11T05:28:43.010Z,996.91
2023-03-11T05:29:43.017Z,996.93
2023-03-11T05:30:43.029Z,996.97
2023-03-11T05:31:43.195Z,996.94
2023-03-11T05:32:43.159Z,996.99
2023-03-11T05:33:43.006Z,996.97
2023-03-11T05:34:43.019Z,997.02
2023-03-11T05:35:43.351Z,996.97
2023-03-11T05:36:43.015Z,997
2023-03-11T05:37:43.032Z,997.01
2023-03-11T05:38:43.118Z,996.99
2023-03-11T05:39:43.017Z,997.01
2023-03-11T05:40:43.006Z,997
2023-03-11T05:41:43.052Z,996.99
2023-03-11T05:42:43.223Z,997.04
2023-03-11T05:43:43.020Z,997.09
2023-03-11T05:44:43.022Z,997.11
2023-03-11T05:45:43.017Z,997.1
2023-03-11T05:46:43.080Z,997.11
2023-03-11T05:47:43.059Z,997.17
2023-03-11T05:48:43.029Z,997.18
2023-03-11T05:49:43.013Z,997.16
2023-03-11T05:50:43.011Z,997.16
2023-03-11T05:51:43.023Z,997.17
2023-03-11T05:52:43.075Z,997.16
2023-03-11T05:53:43.016Z,997.22
2023-03-11T05:54:43.017Z,997.22
2023-03-11T05:55:43.015Z,997.21
2023-03-11T05:56:43.035Z,997.24
2023-03-11T05:57:43.050Z,997.23
2023-03-11T05:58:43.011Z,997.2
2023-03-11T05:59:43.024Z,997.2
2023-03-11T06:00:43.014Z,997.21
2023-03-11T06:01:43.018Z,997.14
2023-03-11T06:02:43.041Z,997.17
2023-03-11T06:03:43.043Z,997.25
2023-03-11T06:04:43.089Z,997.26
2023-03-11T06:05:43.014Z,997.28
2023-03-11T06:06:43.029Z,997.3
2023-03-11T06:07:43.033Z,997.28
2023-03-11T06:08:43.007Z,997.26
2023-03-11T06:09:43.015Z,997.31
2023-03-11T06:10:43.026Z,997.29
2023-03-11T06:11:43.019Z,997.29
2023-03-11T06:12:43.038Z,997.28
2023-03-11T06:13:43.042Z,997.3
2023-03-11T06:14:43.011Z,997.29
2023-03-11T06:15:43.003Z,997.31
2023-03-11T06:16:43.038Z,997.33
2023-03-11T06:17:43.021Z,997.34
2023-03-11T06:18:43.015Z,997.39
2023-03-11T06:19:43.010Z,997.41
2023-03-11T06:20:43.021Z,997.4
2023-03-11T06:21:43.031Z,997.4
2023-03-11T06:22:43.031Z,997.39
2023-03-11T06:23:43.126Z,997.47
2023-03-11T06:24:43.010Z,997.42
2023-03-11T06:25:43.013Z,997.44
2023-03-11T06:26:43.018Z,997.44
2023-03-11T06:27:43.029Z,997.42
2023-03-11T06:28:43.008Z,997.44
2023-03-11T06:29:43.018Z,997.45
2023-03-11T06:30:43.022Z,997.47
2023-03-11T06:31:43.148Z,997.54
2023-03-11T06:32:43.132Z,997.5
2023-03-11T06:33:43.008Z,997.5
2023-03-11T06:34:43.014Z,997.56
2023-03-11T06:35:43.065Z,997.55
2023-03-11T06:36:43.034Z,997.5
2023-03-11T06:37:43.023Z,997.52
2023-03-11T06:38:43.037Z,997.54
2023-03-11T06:39:43.017Z,997.5
2023-03-11T06:40:43.025Z,997.56
2023-03-11T06:41:43.019Z,997.51
2023-03-11T06:42:43.023Z,997.55
2023-03-11T06:43:43.220Z,997.55
2023-03-11T06:44:43.465Z,997.61
2023-03-11T06:45:43.225Z,997.62
2023-03-11T06:46:43.055Z,997.64
2023-03-11T06:47:43.267Z,997.62
2023-03-11T06:48:43.543Z,997.64
2023-03-11T06:49:43.295Z,997.66
2023-03-11T06:50:43.570Z,997.69
2023-03-11T06:51:43.383Z,997.74
2023-03-11T06:52:43.727Z,997.78
2023-03-11T06:53:43.987Z,997.8
2023-03-11T06:54:43.316Z,997.81
2023-03-11T06:55:43.775Z,997.81
2023-03-11T06:56:43.850Z,997.86
2023-03-11T06:57:43.019Z,997.87
2023-03-11T06:58:43.035Z,997.91
2023-03-11T06:59:43.160Z,997.9
2023-03-11T07:00:46.130Z,997.93
2023-03-11T07:01:43.026Z,997.92
2023-03-11T07:02:43.296Z,997.91
2023-03-11T07:03:43.071Z,997.92
2023-03-11T07:04:43.014Z,997.97
2023-03-11T07:05:43.012Z,998
2023-03-11T07:06:43.102Z,998.01
2023-03-11T07:07:43.338Z,998.06
2023-03-11T07:08:43.050Z,998.03
2023-03-11T07:09:43.115Z,998.04
2023-03-11T07:10:43.014Z,998.07
2023-03-11T07:11:43.009Z,998.12
2023-03-11T07:12:43.043Z,998.1
2023-03-11T07:13:43.016Z,998.09
2023-03-11T07:14:43.004Z,998.13
2023-03-11T07:15:43.007Z,998.14
2023-03-11T07:16:43.026Z,998.18
2023-03-11T07:17:43.174Z,998.19
2023-03-11T07:18:43.019Z,998.15
2023-03-11T07:19:43.090Z,998.24
2023-03-11T07:20:43.154Z,998.22
2023-03-11T07:21:43.023Z,998.22
2023-03-11T07:22:43.021Z,998.23
2023-03-11T07:23:43.115Z,998.2
2023-03-11T07:24:43.293Z,998.21
2023-03-11T07:25:43.399Z,998.17
2023-03-11T07:26:46.037Z,998.22
2023-03-11T07:27:43.080Z,998.24
2023-03-11T07:28:43.235Z,998.31
2023-03-11T07:29:43.038Z,998.32
2023-03-11T07:30:43.051Z,998.33
2023-03-11T07:31:43.034Z,998.34
2023-03-11T07:32:43.075Z,998.35
2023-03-11T07:33:43.090Z,998.37
2023-03-11T07:34:43.074Z,998.42
2023-03-11T07:35:43.276Z,998.47
2023-03-11T07:36:43.033Z,998.47
2023-03-11T07:37:43.005Z,998.48
2023-03-11T07:38:44.006Z,998.52
2023-03-11T07:39:43.070Z,998.54
2023-03-11T07:40:43.213Z,998.51
2023-03-11T07:41:43.231Z,998.54
2023-03-11T07:42:43.268Z,998.61
2023-03-11T07:43:43.191Z,998.6
2023-03-11T07:44:43.074Z,998.63
2023-03-11T07:45:43.214Z,998.65
2023-03-11T07:46:43.096Z,998.66
2023-03-11T07:47:43.070Z,998.68
2023-03-11T07:48:43.023Z,998.69
2023-03-11T07:49:43.017Z,998.73
2023-03-11T07:50:43.009Z,998.73
2023-03-11T07:51:43.062Z,998.76
2023-03-11T07:52:43.014Z,998.79
2023-03-11T07:53:43.687Z,998.82
2023-03-11T07:54:43.019Z,998.8
2023-03-11T07:55:43.014Z,998.84
2023-03-11T07:56:43.023Z,998.82
2023-03-11T07:57:43.032Z,998.83
2023-03-11T07:58:46.077Z,998.83
2023-03-11T07:59:43.029Z,998.81
2023-03-11T08:00:43.035Z,998.83
2023-03-11T08:01:43.028Z,998.88
2023-03-11T08:02:43.052Z,998.89
2023-03-11T08:03:43.063Z,998.86
2023-03-11T08:04:43.133Z,998.91
2023-03-11T08:05:43.430Z,998.91
2023-03-11T08:06:43.337Z,998.94
2023-03-11T08:07:42.794Z,998.94
2023-03-11T08:08:42.891Z,998.95
2023-03-11T08:09:43.186Z,998.94
2023-03-11T08:10:42.456Z,998.98
2023-03-11T08:11:42.749Z,998.96
2023-03-11T08:12:43.141Z,999.03
2023-03-11T08:13:43.295Z,999.01
2023-03-11T08:14:42.782Z,999.01
2023-03-11T08:15:43.184Z,999.03
2023-03-11T08:16:43.455Z,999.03
2023-03-11T08:17:43.009Z,999
2023-03-11T08:18:43.964Z,999.07
2023-03-11T08:19:43.083Z,999.05
2023-03-11T08:20:43.015Z,999.04
2023-03-11T08:21:43.158Z,999.08
2023-03-11T08:22:57.875Z,999.13
2023-03-11T08:23:43.172Z,999.11
2023-03-11T08:24:43.154Z,999.15
2023-03-11T08:25:43.257Z,999.17
2023-03-11T08:26:43.115Z,999.19
2023-03-11T08:27:43.292Z,999.17
2023-03-11T08:28:43.285Z,999.13
2023-03-11T08:29:43.366Z,999.2
2023-03-11T08:30:44.288Z,999.11
2023-03-11T08:31:43.857Z,999.12
2023-03-11T08:32:43.255Z,999.15
2023-03-11T08:33:43.113Z,999.18
2023-03-11T08:34:43.011Z,999.2
2023-03-11T08:35:43.296Z,999.22
2023-03-11T08:36:43.023Z,999.23
2023-03-11T08:37:43.187Z,999.23
2023-03-11T08:38:43.414Z,999.24
2023-03-11T08:39:43.272Z,999.25
2023-03-11T08:40:43.141Z,999.23
2023-03-11T08:41:43.300Z,999.3
2023-03-11T08:42:43.256Z,999.29
2023-03-11T08:43:43.171Z,999.28
2023-03-11T08:44:43.565Z,999.28
2023-03-11T08:45:43.496Z,999.35
2023-03-11T08:46:43.354Z,999.28
2023-03-11T08:47:43.106Z,999.29
2023-03-11T08:48:43.290Z,999.32
2023-03-11T08:49:43.068Z,999.34
2023-03-11T08:50:54.440Z,999.35
2023-03-11T08:51:43.019Z,999.36
2023-03-11T08:52:43.155Z,999.34
2023-03-11T08:53:43.111Z,999.35
2023-03-11T08:54:43.075Z,999.4
2023-03-11T08:55:43.013Z,999.44
2023-03-11T08:56:43.197Z,999.43
2023-03-11T08:57:43.058Z,999.44
2023-03-11T08:58:43.032Z,999.45
2023-03-11T08:59:43.179Z,999.44
2023-03-11T09:00:43.084Z,999.44
2023-03-11T09:01:43.018Z,999.42
2023-03-11T09:02:43.057Z,999.41
2023-03-11T09:03:43.025Z,999.42
2023-03-11T09:04:43.007Z,999.34
2023-03-11T09:05:43.048Z,999.31
2023-03-11T09:06:43.290Z,999.28
2023-03-11T09:07:43.285Z,999.31
2023-03-11T09:08:43.071Z,999.28
2023-03-11T09:09:43.130Z,999.28
2023-03-11T09:10:43.019Z,999.31
2023-03-11T09:11:43.017Z,999.29
2023-03-11T09:12:43.247Z,999.29
2023-03-11T09:13:43.384Z,999.33
2023-03-11T09:14:43.010Z,999.33
2023-03-11T09:15:43.022Z,999.34
2023-03-11T09:16:43.072Z,999.36
2023-03-11T09:17:43.287Z,999.3
2023-03-11T09:18:43.009Z,999.32
2023-03-11T09:19:43.020Z,999.34
2023-03-11T09:20:43.017Z,999.34
2023-03-11T09:21:43.103Z,999.39
2023-03-11T09:22:43.006Z,999.39
2023-03-11T09:23:46.122Z,999.42
2023-03-11T09:24:43.048Z,999.37
2023-03-11T09:25:43.220Z,999.39
2023-03-11T09:26:43.012Z,999.39
2023-03-11T09:27:43.008Z,999.35
2023-03-11T09:28:43.017Z,999.36
2023-03-11T09:29:43.019Z,999.34
2023-03-11T09:30:43.006Z,999.37
2023-03-11T09:31:43.090Z,999.39
2023-03-11T09:32:43.085Z,999.39
2023-03-11T09:33:43.029Z,999.4
2023-03-11T09:34:43.020Z,999.41
2023-03-11T09:35:43.042Z,999.41
2023-03-11T09:36:43.128Z,999.41
2023-03-11T09:37:43.040Z,999.45
2023-03-11T09:38:43.022Z,999.46
2023-03-11T09:39:43.013Z,999.48
2023-03-11T09:40:43.823Z,999.45
2023-03-11T09:41:58.232Z,999.41
2023-03-11T09:42:43.031Z,999.45
2023-03-11T09:43:43.020Z,999.44
2023-03-11T09:44:43.020Z,999.43
2023-03-11T09:45:43.328Z,999.43
2023-03-11T09:46:43.062Z,999.5
2023-03-11T09:47:43.051Z,999.53
2023-03-11T09:48:43.024Z,999.55
2023-03-11T09:49:43.014Z,999.55
2023-03-11T09:50:43.099Z,999.56
2023-03-11T09:51:43.017Z,999.54
2023-03-11T09:52:43.320Z,999.58
2023-03-11T09:53:43.024Z,999.63
2023-03-11T09:54:43.030Z,999.63
2023-03-11T09:55:43.059Z,999.66
2023-03-11T09:56:46.125Z,999.62
2023-03-11T09:57:43.007Z,999.61
2023-03-11T09:58:43.011Z,999.66
2023-03-11T09:59:43.080Z,999.62
2023-03-11T10:00:43.017Z,999.62
2023-03-11T10:01:43.151Z,999.66
2023-03-11T10:02:43.109Z,999.66
2023-03-11T10:03:43.008Z,999.65
2023-03-11T10:04:43.015Z,999.61
2023-03-11T10:05:43.019Z,999.68
2023-03-11T10:06:43.167Z,999.71
2023-03-11T10:07:43.013Z,999.73
2023-03-11T10:08:43.009Z,999.75
2023-03-11T10:09:43.004Z,999.74
2023-03-11T10:10:43.016Z,999.72
2023-03-11T10:11:43.020Z,999.71
2023-03-11T10:12:43.025Z,999.68
2023-03-11T10:13:43.009Z,999.72
2023-03-11T10:14:43.008Z,999.73
2023-03-11T10:15:43.032Z,999.78
2023-03-11T10:16:43.086Z,999.7
2023-03-11T10:17:43.102Z,999.75
2023-03-11T10:18:43.278Z,999.77
2023-03-11T10:19:43.668Z,999.75
2023-03-11T10:20:43.271Z,999.8
2023-03-11T10:21:43.091Z,999.74
2023-03-11T10:22:43.328Z,999.78
2023-03-11T10:23:43.658Z,999.78
2023-03-11T10:24:43.006Z,999.82
2023-03-11T10:25:43.198Z,999.77
2023-03-11T10:26:43.452Z,999.8
2023-03-11T10:27:44.198Z,999.82
2023-03-11T10:28:43.059Z,999.82
2023-03-11T10:29:43.287Z,999.86
2023-03-11T10:30:43.610Z,999.83
2023-03-11T10:31:43.937Z,999.82
2023-03-11T10:32:43.079Z,999.84
2023-03-11T10:33:43.473Z,999.91
2023-03-11T10:34:43.323Z,999.9
2023-03-11T10:35:43.031Z,999.93
2023-03-11T10:36:43.010Z,999.92
2023-03-11T10:37:50.509Z,999.88
2023-03-11T10:38:43.015Z,999.88
2023-03-11T10:39:43.024Z,999.89
2023-03-11T10:40:43.012Z,999.85
2023-03-11T10:41:43.095Z,999.86
2023-03-11T10:42:43.046Z,999.93
2023-03-11T10:43:43.029Z,999.9
2023-03-11T10:44:43.068Z,999.91
2023-03-11T10:45:43.015Z,999.94
2023-03-11T10:46:43.009Z,999.9
2023-03-11T10:47:43.014Z,999.95
2023-03-11T10:48:43.008Z,999.87
2023-03-11T10:49:43.009Z,999.84
2023-03-11T10:50:43.014Z,999.86
2023-03-11T10:51:43.012Z,999.86
2023-03-11T10:52:43.033Z,999.82
2023-03-11T10:53:43.005Z,999.82
2023-03-11T10:54:43.015Z,999.84
2023-03-11T10:55:43.015Z,999.83
2023-03-11T10:56:43.012Z,999.81
2023-03-11T10:57:43.049Z,999.83
2023-03-11T10:58:43.031Z,999.82
2023-03-11T10:59:43.009Z,999.82
2023-03-11T11:00:43.009Z,999.87
2023-03-11T11:01:43.012Z,999.88
2023-03-11T11:02:46.008Z,999.88
2023-03-11T11:03:43.024Z,999.9
2023-03-11T11:04:43.011Z,999.9
2023-03-11T11:05:43.006Z,999.88
2023-03-11T11:06:43.017Z,999.85
2023-03-11T11:07:43.024Z,999.89
2023-03-11T11:08:43.017Z,999.84
2023-03-11T11:09:43.018Z,999.86
2023-03-11T11:10:43.026Z,999.88
2023-03-11T11:11:43.020Z,999.87
2023-03-11T11:12:43.028Z,999.84
2023-03-11T11:13:43.020Z,999.83
2023-03-11T11:14:43.041Z,999.88
2023-03-11T11:15:43.019Z,999.89
2023-03-11T11:16:43.033Z,999.94
2023-03-11T11:17:43.033Z,999.93
2023-03-11T11:18:43.012Z,999.99
2023-03-11T11:19:43.029Z,1000
2023-03-11T11:20:43.215Z,1000
2023-03-11T11:21:43.032Z,999.99
2023-03-11T11:22:43.011Z,999.98
2023-03-11T11:23:43.025Z,1000
2023-03-11T11:24:43.015Z,999.98
2023-03-11T11:25:43.290Z,999.96
2023-03-11T11:26:43.013Z,999.97
2023-03-11T11:27:43.015Z,999.94
2023-03-11T11:28:43.026Z,999.97
2023-03-11T11:29:43.034Z,999.93
2023-03-11T11:30:43.061Z,999.9
2023-03-11T11:31:43.032Z,999.88
2023-03-11T11:32:43.057Z,999.84
2023-03-11T11:33:43.018Z,999.85
2023-03-11T11:34:43.024Z,999.87
2023-03-11T11:35:43.027Z,999.81
2023-03-11T11:36:43.010Z,999.83
2023-03-11T11:37:43.016Z,999.82
2023-03-11T11:38:43.085Z,999.79
2023-03-11T11:39:43.360Z,999.78
2023-03-11T11:40:48.441Z,999.82
2023-03-11T11:41:43.023Z,999.8
2023-03-11T11:42:43.025Z,999.77
2023-03-11T11:43:43.029Z,999.77
2023-03-11T11:44:43.024Z,999.77
2023-03-11T11:45:43.066Z,999.77
2023-03-11T11:46:43.014Z,999.83
2023-03-11T11:47:43.042Z,999.81
2023-03-11T11:48:43.109Z,999.88
2023-03-11T11:49:43.014Z,999.87
2023-03-11T11:50:43.026Z,999.8
2023-03-11T11:51:43.158Z,999.83
2023-03-11T11:52:46.182Z,999.86
2023-03-11T11:53:43.010Z,999.85
2023-03-11T11:54:43.436Z,999.87
2023-03-11T11:55:43.218Z,999.85
2023-03-11T11:56:43.252Z,999.84
2023-03-11T11:57:43.033Z,999.8
2023-03-11T11:58:43.011Z,999.8
2023-03-11T11:59:43.236Z,999.77
2023-03-11T12:00:43.012Z,999.77
2023-03-11T12:01:43.148Z,999.78
2023-03-11T12:02:43.065Z,999.73
2023-03-11T12:03:43.757Z,999.72
2023-03-11T12:04:43.438Z,999.74
2023-03-11T12:05:43.902Z,999.74
2023-03-11T12:06:43.247Z,999.75
2023-03-11T12:07:43.572Z,999.75
2023-03-11T12:08:43.074Z,999.7
2023-03-11T12:09:43.361Z,999.69
2023-03-11T12:10:43.266Z,999.64
2023-03-11T12:11:44.636Z,999.65
2023-03-11T12:12:43.188Z,999.62
2023-03-11T12:13:43.459Z,999.6
2023-03-11T12:14:43.367Z,999.61
2023-03-11T12:15:43.012Z,999.59
2023-03-11T12:16:43.295Z,999.62
2023-03-11T12:17:43.041Z,999.63
2023-03-11T12:18:43.209Z,999.63
2023-03-11T12:19:43.021Z,999.66
2023-03-11T12:20:43.224Z,999.6
2023-03-11T12:21:43.098Z,999.68
2023-03-11T12:22:43.288Z,999.67
2023-03-11T12:23:43.002Z,999.69
2023-03-11T12:24:43.017Z,999.75
2023-03-11T12:25:43.024Z,999.74
2023-03-11T12:26:43.009Z,999.71
2023-03-11T12:27:43.009Z,999.65
2023-03-11T12:28:43.032Z,999.66
2023-03-11T12:29:46.357Z,999.67
2023-03-11T12:30:43.090Z,999.64
2023-03-11T12:31:43.077Z,999.62